Startpagina
METAR-TAF:

METAR-TAF

Vliegvelden :

Tours, Frankrijk

breedte: 47-27N, lengte: 000-43E, hoogte: 108 m

Actueel weer

Dit bericht is 39 minuten geleden gemaakt, om 03:00 UTC
Wind 2 kt uit variabele richting
Temperatuur 14°C
Vochtigheid 77%
Druk 1017 hPa
Zicht 10 km of meer
geen wolken onder 1500 m en geen cumulonimbus

METAR: LFOT 020300Z AUTO VRB02KT CAVOK 14/10 Q1017 NOSIG

Tijdstip: 05:39 (03:39 UTC)

Verwachting

Dit bericht is 4 uur en het 39 minuten geleden gemaakt, om 23:00 UTC
Verwachting geldig van 02 om 00 UTC tot 02 om 24 UTC
Wind 5 kt uit variabele richting
Zicht 10 km of meer
geen wolken onder 1500 m en geen cumulonimbus

TAF: LFOT 012300Z 0200/0224 VRB05KT CAVOK

Waarnemingen en weersverwachtingen van meer dan 4000 vliegvelden (METAR en TAF).

De beschikbare stations zijn de gele en rode punten op de kaart.

Ga met uw muis naar het station om de naam te zien.

Klik dan om waarnemingen en weersverwachtingen te zien.

kaart wijzigen: klik op de groene knoppen met een zwart kruis om in te zoomen, op de groene knop met een streepje om uit te zoomen of op de groene pijlen voor aangrenzende kaarten.


METAR-TAF: